sensor_id;sensor_type;location;lat;lon;timestamp;pressure;altitude;pressure_sealevel;temperature;humidity
25526;BME280;13424;48.424;11.258;2024-03-08T00:00:10;95488.63;;;4.49;74.86
25526;BME280;13424;48.424;11.258;2024-03-08T00:02:42;95493.09;;;4.42;75.25
25526;BME280;13424;48.424;11.258;2024-03-08T00:05:08;95485.38;;;4.47;75.06
25526;BME280;13424;48.424;11.258;2024-03-08T00:07:36;95479.69;;;4.57;74.17
25526;BME280;13424;48.424;11.258;2024-03-08T00:10:12;95486.19;;;4.01;76.71
25526;BME280;13424;48.424;11.258;2024-03-08T00:12:40;95480.53;;;4.37;75.12
25526;BME280;13424;48.424;11.258;2024-03-08T00:15:11;95482.97;;;4.45;74.95
25526;BME280;13424;48.424;11.258;2024-03-08T00:17:44;95491.06;;;4.17;75.28
25526;BME280;13424;48.424;11.258;2024-03-08T00:20:10;95486.63;;;4.38;74.84
25526;BME280;13424;48.424;11.258;2024-03-08T00:22:40;95473.00;;;4.34;75.32
25526;BME280;13424;48.424;11.258;2024-03-08T00:25:07;95480.94;;;4.21;75.52
25526;BME280;13424;48.424;11.258;2024-03-08T00:27:37;95481.34;;;4.38;74.97
25526;BME280;13424;48.424;11.258;2024-03-08T00:30:10;95481.34;;;4.44;74.39
25526;BME280;13424;48.424;11.258;2024-03-08T00:32:38;95484.19;;;4.43;74.73
25526;BME280;13424;48.424;11.258;2024-03-08T00:35:05;95474.41;;;4.24;74.84
25526;BME280;13424;48.424;11.258;2024-03-08T00:37:33;95474.81;;;4.47;74.25
25526;BME280;13424;48.424;11.258;2024-03-08T00:40:00;95479.91;;;4.15;75.29
25526;BME280;13424;48.424;11.258;2024-03-08T00:42:26;95463.66;;;4.52;74.20
25526;BME280;13424;48.424;11.258;2024-03-08T00:44:52;95463.88;;;4.24;74.70
25526;BME280;13424;48.424;11.258;2024-03-08T00:47:18;95461.81;;;4.06;75.89
25526;BME280;13424;48.424;11.258;2024-03-08T00:49:44;95451.03;;;3.94;75.30
25526;BME280;13424;48.424;11.258;2024-03-08T00:52:10;95446.41;;;4.36;74.53
25526;BME280;13424;48.424;11.258;2024-03-08T00:54:36;95442.34;;;4.13;75.50
25526;BME280;13424;48.424;11.258;2024-03-08T00:57:03;95433.78;;;3.85;75.46
25526;BME280;13424;48.424;11.258;2024-03-08T00:59:30;95436.22;;;3.80;77.19
25526;BME280;13424;48.424;11.258;2024-03-08T01:01:59;95429.94;;;3.81;76.18
25526;BME280;13424;48.424;11.258;2024-03-08T01:04:28;95420.00;;;3.89;75.99
25526;BME280;13424;48.424;11.258;2024-03-08T01:06:58;95431.53;;;3.75;76.82
25526;BME280;13424;48.424;11.258;2024-03-08T01:09:26;95421.19;;;3.87;76.80
25526;BME280;13424;48.424;11.258;2024-03-08T01:11:55;95420.59;;;3.98;76.32
25526;BME280;13424;48.424;11.258;2024-03-08T01:14:23;95408.84;;;3.87;77.19
25526;BME280;13424;48.424;11.258;2024-03-08T01:16:49;95408.00;;;4.00;75.84
25526;BME280;13424;48.424;11.258;2024-03-08T01:19:18;95412.28;;;4.28;74.97
25526;BME280;13424;48.424;11.258;2024-03-08T01:21:47;95405.78;;;4.10;75.76
25526;BME280;13424;48.424;11.258;2024-03-08T01:24:13;95403.97;;;4.04;75.56
25526;BME280;13424;48.424;11.258;2024-03-08T01:26:39;95415.53;;;4.03;75.49
25526;BME280;13424;48.424;11.258;2024-03-08T01:29:05;95406.63;;;4.11;75.38
25526;BME280;13424;48.424;11.258;2024-03-08T01:31:31;95404.16;;;3.89;76.04
25526;BME280;13424;48.424;11.258;2024-03-08T01:33:58;95397.66;;;4.18;74.98
25526;BME280;13424;48.424;11.258;2024-03-08T01:36:25;95389.53;;;4.13;75.21
25526;BME280;13424;48.424;11.258;2024-03-08T01:38:52;95398.88;;;4.23;74.66
25526;BME280;13424;48.424;11.258;2024-03-08T01:41:18;95394.03;;;3.80;76.09
25526;BME280;13424;48.424;11.258;2024-03-08T01:43:44;95391.16;;;4.08;75.62
25526;BME280;13424;48.424;11.258;2024-03-08T01:46:14;95393.22;;;4.12;75.76
25526;BME280;13424;48.424;11.258;2024-03-08T01:48:43;95384.25;;;4.00;75.91
25526;BME280;13424;48.424;11.258;2024-03-08T01:51:09;95386.09;;;3.67;77.15
25526;BME280;13424;48.424;11.258;2024-03-08T01:53:37;95385.91;;;3.88;76.58
25526;BME280;13424;48.424;11.258;2024-03-08T01:56:05;95388.94;;;3.98;76.35
25526;BME280;13424;48.424;11.258;2024-03-08T01:58:32;95386.28;;;3.78;77.19
25526;BME280;13424;48.424;11.258;2024-03-08T02:00:59;95380.41;;;3.70;76.96
25526;BME280;13424;48.424;11.258;2024-03-08T02:03:26;95379.75;;;3.41;78.02
25526;BME280;13424;48.424;11.258;2024-03-08T02:05:52;95369.41;;;3.33;78.61
25526;BME280;13424;48.424;11.258;2024-03-08T02:08:19;95359.91;;;3.85;77.33
25526;BME280;13424;48.424;11.258;2024-03-08T02:10:48;95365.19;;;3.58;77.43
25526;BME280;13424;48.424;11.258;2024-03-08T02:13:15;95365.59;;;3.69;77.15
25526;BME280;13424;48.424;11.258;2024-03-08T02:15:55;95361.94;;;3.56;77.69
25526;BME280;13424;48.424;11.258;2024-03-08T02:18:23;95362.53;;;3.52;78.18
25526;BME280;13424;48.424;11.258;2024-03-08T02:20:56;95362.75;;;3.83;76.98
25526;BME280;13424;48.424;11.258;2024-03-08T02:23:24;95366.78;;;3.33;79.07
25526;BME280;13424;48.424;11.258;2024-03-08T02:25:56;95357.28;;;3.58;78.13
25526;BME280;13424;48.424;11.258;2024-03-08T02:28:23;95343.25;;;3.84;77.32
25526;BME280;13424;48.424;11.258;2024-03-08T02:30:51;95345.69;;;3.59;77.96
25526;BME280;13424;48.424;11.258;2024-03-08T02:33:21;95338.38;;;3.55;77.88
25526;BME280;13424;48.424;11.258;2024-03-08T02:35:49;95337.56;;;3.54;78.40
25526;BME280;13424;48.424;11.258;2024-03-08T02:38:20;95342.44;;;3.77;77.45
25526;BME280;13424;48.424;11.258;2024-03-08T02:40:48;95342.06;;;3.80;77.28
25526;BME280;13424;48.424;11.258;2024-03-08T02:43:16;95333.13;;;3.61;78.01
25526;BME280;13424;48.424;11.258;2024-03-08T02:45:43;95336.94;;;3.39;78.41
25526;BME280;13424;48.424;11.258;2024-03-08T02:48:12;95333.94;;;3.62;78.04
25526;BME280;13424;48.424;11.258;2024-03-08T02:50:39;95335.94;;;3.27;78.72
25526;BME280;13424;48.424;11.258;2024-03-08T02:53:13;95333.91;;;3.35;78.93
25526;BME280;13424;48.424;11.258;2024-03-08T02:55:40;95321.16;;;3.59;78.12
25526;BME280;13424;48.424;11.258;2024-03-08T02:58:07;95315.88;;;3.66;78.36
25526;BME280;13424;48.424;11.258;2024-03-08T03:00:37;95317.69;;;3.45;78.27
25526;BME280;13424;48.424;11.258;2024-03-08T03:03:05;95322.94;;;3.39;79.18
25526;BME280;13424;48.424;11.258;2024-03-08T03:05:32;95325.00;;;3.43;78.15
25526;BME280;13424;48.424;11.258;2024-03-08T03:07:59;95316.09;;;3.51;78.52
25526;BME280;13424;48.424;11.258;2024-03-08T03:10:25;95315.88;;;3.59;77.73
25526;BME280;13424;48.424;11.258;2024-03-08T03:12:51;95314.84;;;3.53;78.00
25526;BME280;13424;48.424;11.258;2024-03-08T03:15:18;95323.56;;;3.27;79.14
25526;BME280;13424;48.424;11.258;2024-03-08T03:17:51;95317.88;;;3.37;78.93
25526;BME280;13424;48.424;11.258;2024-03-08T03:20:18;95315.22;;;3.24;79.30
25526;BME280;13424;48.424;11.258;2024-03-08T03:22:59;95310.81;;;3.57;78.33
25526;BME280;13424;48.424;11.258;2024-03-08T03:25:27;95311.00;;;3.36;78.25
25526;BME280;13424;48.424;11.258;2024-03-08T03:27:59;95308.34;;;3.23;79.25
25526;BME280;13424;48.424;11.258;2024-03-08T03:30:25;95299.84;;;3.41;79.11
25526;BME280;13424;48.424;11.258;2024-03-08T03:33:00;95304.13;;;3.48;78.41
25526;BME280;13424;48.424;11.258;2024-03-08T03:35:29;95297.81;;;3.62;77.34
25526;BME280;13424;48.424;11.258;2024-03-08T03:37:55;95307.16;;;3.32;78.10
25526;BME280;13424;48.424;11.258;2024-03-08T03:40:34;95311.59;;;3.25;78.23
25526;BME280;13424;48.424;11.258;2024-03-08T03:43:01;95314.81;;;3.00;80.11
25526;BME280;13424;48.424;11.258;2024-03-08T03:45:29;95303.09;;;3.36;78.72
25526;BME280;13424;48.424;11.258;2024-03-08T03:47:55;95299.41;;;3.24;79.57
25526;BME280;13424;48.424;11.258;2024-03-08T03:50:21;95297.78;;;3.03;79.55
25526;BME280;13424;48.424;11.258;2024-03-08T03:52:49;95306.75;;;3.48;78.86
25526;BME280;13424;48.424;11.258;2024-03-08T03:55:15;95301.81;;;3.05;79.52
25526;BME280;13424;48.424;11.258;2024-03-08T03:57:42;95305.31;;;3.19;79.47
25526;BME280;13424;48.424;11.258;2024-03-08T04:00:09;95303.06;;;3.10;79.60
25526;BME280;13424;48.424;11.258;2024-03-08T04:02:40;95299.41;;;3.30;79.13
25526;BME280;13424;48.424;11.258;2024-03-08T04:05:08;95308.50;;;3.08;80.54
25526;BME280;13424;48.424;11.258;2024-03-08T04:07:38;95303.28;;;3.21;78.95
25526;BME280;13424;48.424;11.258;2024-03-08T04:10:07;95296.97;;;3.16;79.67
25526;BME280;13424;48.424;11.258;2024-03-08T04:12:35;95298.63;;;3.17;79.56
25526;BME280;13424;48.424;11.258;2024-03-08T04:15:02;95290.63;;;2.90;81.03
25526;BME280;13424;48.424;11.258;2024-03-08T04:17:28;95292.03;;;2.79;81.54
25526;BME280;13424;48.424;11.258;2024-03-08T04:19:54;95295.16;;;3.23;80.40
25526;BME280;13424;48.424;11.258;2024-03-08T04:22:20;95285.81;;;3.07;80.74
25526;BME280;13424;48.424;11.258;2024-03-08T04:24:46;95287.03;;;3.11;81.05
25526;BME280;13424;48.424;11.258;2024-03-08T04:27:14;95279.13;;;3.31;80.58
25526;BME280;13424;48.424;11.258;2024-03-08T04:29:40;95278.72;;;3.07;80.66
25526;BME280;13424;48.424;11.258;2024-03-08T04:32:08;95280.78;;;3.39;80.15
25526;BME280;13424;48.424;11.258;2024-03-08T04:34:34;95275.69;;;3.24;80.19
25526;BME280;13424;48.424;11.258;2024-03-08T04:37:01;95276.69;;;3.23;80.84
25526;BME280;13424;48.424;11.258;2024-03-08T04:39:28;95271.19;;;2.91;81.43
25526;BME280;13424;48.424;11.258;2024-03-08T04:42:02;95275.28;;;3.14;81.11
25526;BME280;13424;48.424;11.258;2024-03-08T04:44:30;95272.63;;;3.14;81.33
25526;BME280;13424;48.424;11.258;2024-03-08T04:46:57;95270.84;;;3.34;80.58
25526;BME280;13424;48.424;11.258;2024-03-08T04:49:23;95276.28;;;3.06;81.36
25526;BME280;13424;48.424;11.258;2024-03-08T04:51:49;95265.31;;;2.89;80.92
25526;BME280;13424;48.424;11.258;2024-03-08T04:54:15;95275.47;;;3.05;81.51
25526;BME280;13424;48.424;11.258;2024-03-08T04:56:41;95280.91;;;2.91;82.01
25526;BME280;13424;48.424;11.258;2024-03-08T04:59:07;95279.53;;;3.15;81.51
25526;BME280;13424;48.424;11.258;2024-03-08T05:01:34;95271.44;;;3.10;81.82
25526;BME280;13424;48.424;11.258;2024-03-08T05:04:04;95274.63;;;2.78;82.18
25526;BME280;13424;48.424;11.258;2024-03-08T05:06:31;95269.59;;;3.03;81.14
25526;BME280;13424;48.424;11.258;2024-03-08T05:08:57;95274.47;;;3.06;81.56
25526;BME280;13424;48.424;11.258;2024-03-08T05:11:23;95267.72;;;2.84;81.76
25526;BME280;13424;48.424;11.258;2024-03-08T05:13:49;95274.22;;;2.88;81.94
25526;BME280;13424;48.424;11.258;2024-03-08T05:16:15;95279.94;;;3.05;81.71
25526;BME280;13424;48.424;11.258;2024-03-08T05:18:41;95265.72;;;2.99;81.83
25526;BME280;13424;48.424;11.258;2024-03-08T05:21:08;95259.91;;;3.17;81.17
25526;BME280;13424;48.424;11.258;2024-03-08T05:23:35;95246.28;;;3.14;81.40
25526;BME280;13424;48.424;11.258;2024-03-08T05:26:01;95270.63;;;3.02;81.09
25526;BME280;13424;48.424;11.258;2024-03-08T05:28:27;95260.69;;;3.18;81.61
25526;BME280;13424;48.424;11.258;2024-03-08T05:30:53;95260.25;;;2.94;82.07
25526;BME280;13424;48.424;11.258;2024-03-08T05:33:22;95260.88;;;3.23;81.52
25526;BME280;13424;48.424;11.258;2024-03-08T05:35:49;95258.41;;;2.88;81.37
25526;BME280;13424;48.424;11.258;2024-03-08T05:38:15;95242.03;;;3.19;80.87
25526;BME280;13424;48.424;11.258;2024-03-08T05:40:41;95253.59;;;3.12;81.11
25526;BME280;13424;48.424;11.258;2024-03-08T05:43:09;95254.19;;;3.00;81.13
25526;BME280;13424;48.424;11.258;2024-03-08T05:45:35;95252.38;;;3.01;81.40
25526;BME280;13424;48.424;11.258;2024-03-08T05:48:01;95253.19;;;3.28;80.41
25526;BME280;13424;48.424;11.258;2024-03-08T05:50:27;95239.78;;;3.76;79.30
25526;BME280;13424;48.424;11.258;2024-03-08T05:52:53;95246.91;;;3.42;80.64
25526;BME280;13424;48.424;11.258;2024-03-08T05:55:19;95246.28;;;3.14;80.55
25526;BME280;13424;48.424;11.258;2024-03-08T05:57:45;95242.25;;;3.57;79.94
25526;BME280;13424;48.424;11.258;2024-03-08T06:00:11;95240.22;;;3.46;79.43
25526;BME280;13424;48.424;11.258;2024-03-08T06:02:40;95242.06;;;3.26;80.46
25526;BME280;13424;48.424;11.258;2024-03-08T06:05:10;95246.88;;;3.16;80.56
25526;BME280;13424;48.424;11.258;2024-03-08T06:07:37;95232.09;;;3.54;79.15
25526;BME280;13424;48.424;11.258;2024-03-08T06:10:11;95245.47;;;3.13;79.59
25526;BME280;13424;48.424;11.258;2024-03-08T06:12:40;95239.81;;;3.56;78.95
25526;BME280;13424;48.424;11.258;2024-03-08T06:15:10;95236.16;;;3.24;79.13
25526;BME280;13424;48.424;11.258;2024-03-08T06:17:40;95239.81;;;3.10;79.64
25526;BME280;13424;48.424;11.258;2024-03-08T06:20:07;95237.00;;;3.24;79.66
25526;BME280;13424;48.424;11.258;2024-03-08T06:22:40;95229.88;;;3.45;79.68
25526;BME280;13424;48.424;11.258;2024-03-08T06:25:13;95236.53;;;3.07;79.84
25526;BME280;13424;48.424;11.258;2024-03-08T06:27:42;95233.53;;;3.30;79.20
25526;BME280;13424;48.424;11.258;2024-03-08T06:30:12;95238.59;;;3.19;79.45
25526;BME280;13424;48.424;11.258;2024-03-08T06:32:39;95241.81;;;3.14;79.68
25526;BME280;13424;48.424;11.258;2024-03-08T06:35:06;95238.81;;;3.57;78.70
25526;BME280;13424;48.424;11.258;2024-03-08T06:37:36;95251.59;;;3.40;79.52
25526;BME280;13424;48.424;11.258;2024-03-08T06:40:03;95242.66;;;3.41;78.76
25526;BME280;13424;48.424;11.258;2024-03-08T06:42:29;95242.03;;;3.52;78.67
25526;BME280;13424;48.424;11.258;2024-03-08T06:44:59;95248.13;;;3.46;78.88
25526;BME280;13424;48.424;11.258;2024-03-08T06:47:31;95255.22;;;3.66;77.44
25526;BME280;13424;48.424;11.258;2024-03-08T06:49:57;95251.16;;;3.36;79.36
25526;BME280;13424;48.424;11.258;2024-03-08T06:52:24;95251.56;;;3.80;78.11
25526;BME280;13424;48.424;11.258;2024-03-08T06:54:50;95250.13;;;3.77;77.30
25526;BME280;13424;48.424;11.258;2024-03-08T06:57:18;95247.53;;;3.51;77.97
25526;BME280;13424;48.424;11.258;2024-03-08T06:59:49;95247.13;;;3.41;78.80
25526;BME280;13424;48.424;11.258;2024-03-08T07:02:15;95249.53;;;3.62;77.63
25526;BME280;13424;48.424;11.258;2024-03-08T07:04:41;95244.66;;;3.66;77.23
25526;BME280;13424;48.424;11.258;2024-03-08T07:07:07;95252.78;;;3.57;77.48
25526;BME280;13424;48.424;11.258;2024-03-08T07:09:38;95249.91;;;3.79;77.29
25526;BME280;13424;48.424;11.258;2024-03-08T07:12:05;95245.06;;;3.62;78.00
25526;BME280;13424;48.424;11.258;2024-03-08T07:14:31;95243.22;;;3.70;77.17
25526;BME280;13424;48.424;11.258;2024-03-08T07:16:57;95245.69;;;3.64;77.76
25526;BME280;13424;48.424;11.258;2024-03-08T07:19:23;95247.09;;;3.47;77.82
25526;BME280;13424;48.424;11.258;2024-03-08T07:21:49;95247.50;;;3.38;78.26
25526;BME280;13424;48.424;11.258;2024-03-08T07:24:15;95248.31;;;3.64;78.04
25526;BME280;13424;48.424;11.258;2024-03-08T07:27:06;95247.53;;;3.57;77.75
25526;BME280;13424;48.424;11.258;2024-03-08T07:29:33;95242.78;;;3.92;76.54
25526;BME280;13424;48.424;11.258;2024-03-08T07:32:00;95233.66;;;3.95;76.63
25526;BME280;13424;48.424;11.258;2024-03-08T07:34:44;95233.41;;;4.61;74.70
25526;BME280;13424;48.424;11.258;2024-03-08T07:37:14;95239.47;;;4.68;75.29
25526;BME280;13424;48.424;11.258;2024-03-08T07:39:40;95238.06;;;4.14;75.83
25526;BME280;13424;48.424;11.258;2024-03-08T07:42:06;95232.03;;;4.52;75.85
25526;BME280;13424;48.424;11.258;2024-03-08T07:44:32;95232.94;;;4.71;75.23
25526;BME280;13424;48.424;11.258;2024-03-08T07:46:59;95230.28;;;5.09;73.88
25526;BME280;13424;48.424;11.258;2024-03-08T07:49:25;95233.78;;;4.65;75.50
25526;BME280;13424;48.424;11.258;2024-03-08T07:51:51;95233.84;;;4.58;74.73
25526;BME280;13424;48.424;11.258;2024-03-08T07:54:20;95230.94;;;4.66;75.33
25526;BME280;13424;48.424;11.258;2024-03-08T07:56:46;95226.47;;;4.67;74.46
25526;BME280;13424;48.424;11.258;2024-03-08T07:59:12;95224.16;;;4.39;75.15
25526;BME280;13424;48.424;11.258;2024-03-08T08:01:38;95220.97;;;4.24;75.90
25526;BME280;13424;48.424;11.258;2024-03-08T08:04:04;95224.53;;;4.81;74.02
25526;BME280;13424;48.424;11.258;2024-03-08T08:06:30;95221.97;;;5.06;73.53
25526;BME280;13424;48.424;11.258;2024-03-08T08:09:00;95219.94;;;4.69;74.23
25526;BME280;13424;48.424;11.258;2024-03-08T08:11:29;95221.50;;;5.15;72.62
25526;BME280;13424;48.424;11.258;2024-03-08T08:13:55;95217.53;;;4.99;74.12
25526;BME280;13424;48.424;11.258;2024-03-08T08:16:23;95217.03;;;4.84;73.93
25526;BME280;13424;48.424;11.258;2024-03-08T08:18:51;95208.94;;;5.04;73.34
25526;BME280;13424;48.424;11.258;2024-03-08T08:21:19;95220.53;;;6.03;72.32
25526;BME280;13424;48.424;11.258;2024-03-08T08:23:44;95221.75;;;5.07;73.37
25526;BME280;13424;48.424;11.258;2024-03-08T08:26:11;95219.47;;;4.79;74.08
25526;BME280;13424;48.424;11.258;2024-03-08T08:28:37;95216.44;;;5.39;73.50
25526;BME280;13424;48.424;11.258;2024-03-08T08:31:04;95210.88;;;5.47;73.55
25526;BME280;13424;48.424;11.258;2024-03-08T08:33:30;95210.03;;;5.71;72.93
25526;BME280;13424;48.424;11.258;2024-03-08T08:35:56;95208.31;;;6.20;70.24
25526;BME280;13424;48.424;11.258;2024-03-08T08:38:22;95206.72;;;6.67;69.36
25526;BME280;13424;48.424;11.258;2024-03-08T08:40:49;95211.22;;;6.67;69.02
25526;BME280;13424;48.424;11.258;2024-03-08T08:43:15;95205.25;;;6.71;68.70
25526;BME280;13424;48.424;11.258;2024-03-08T08:45:42;95200.28;;;7.17;67.89
25526;BME280;13424;48.424;11.258;2024-03-08T08:48:08;95194.16;;;6.44;69.71
25526;BME280;13424;48.424;11.258;2024-03-08T08:50:36;95192.78;;;5.87;70.79
25526;BME280;13424;48.424;11.258;2024-03-08T08:53:02;95193.63;;;5.63;71.07
25526;BME280;13424;48.424;11.258;2024-03-08T08:55:29;95191.25;;;5.04;73.25
25526;BME280;13424;48.424;11.258;2024-03-08T08:57:56;95198.28;;;5.42;72.81
25526;BME280;13424;48.424;11.258;2024-03-08T09:00:22;95186.16;;;5.53;71.23
25526;BME280;13424;48.424;11.258;2024-03-08T09:02:55;95190.66;;;5.52;72.19
25526;BME280;13424;48.424;11.258;2024-03-08T09:05:26;95192.81;;;5.62;71.86
25526;BME280;13424;48.424;11.258;2024-03-08T09:07:52;95193.84;;;5.36;71.66
25526;BME280;13424;48.424;11.258;2024-03-08T09:10:19;95185.25;;;5.84;70.98
25526;BME280;13424;48.424;11.258;2024-03-08T09:12:45;95189.28;;;5.93;71.51
25526;BME280;13424;48.424;11.258;2024-03-08T09:15:11;95185.22;;;5.91;71.02
25526;BME280;13424;48.424;11.258;2024-03-08T09:17:37;95188.38;;;5.99;70.56
25526;BME280;13424;48.424;11.258;2024-03-08T09:20:10;95184.44;;;6.08;70.88
25526;BME280;13424;48.424;11.258;2024-03-08T09:22:43;95183.06;;;6.36;70.76
25526;BME280;13424;48.424;11.258;2024-03-08T09:25:09;95175.47;;;6.39;71.49
25526;BME280;13424;48.424;11.258;2024-03-08T09:27:38;95163.03;;;6.70;69.11
25526;BME280;13424;48.424;11.258;2024-03-08T09:30:06;95166.28;;;7.14;69.46
25526;BME280;13424;48.424;11.258;2024-03-08T09:32:32;95154.59;;;6.91;68.50
25526;BME280;13424;48.424;11.258;2024-03-08T09:34:58;95159.06;;;7.44;68.73
25526;BME280;13424;48.424;11.258;2024-03-08T09:37:24;95160.88;;;7.20;67.58
25526;BME280;13424;48.424;11.258;2024-03-08T09:39:50;95155.81;;;7.19;67.20
25526;BME280;13424;48.424;11.258;2024-03-08T09:42:16;95146.63;;;6.91;68.75
25526;BME280;13424;48.424;11.258;2024-03-08T09:44:47;95143.97;;;6.91;69.32
25526;BME280;13424;48.424;11.258;2024-03-08T09:47:16;95149.66;;;7.18;68.85
25526;BME280;13424;48.424;11.258;2024-03-08T09:49:43;95141.25;;;6.68;69.35
25526;BME280;13424;48.424;11.258;2024-03-08T09:52:10;95135.19;;;6.79;70.07
25526;BME280;13424;48.424;11.258;2024-03-08T09:54:36;95140.38;;;7.51;69.03
25526;BME280;13424;48.424;11.258;2024-03-08T09:57:04;95149.59;;;6.71;68.85
25526;BME280;13424;48.424;11.258;2024-03-08T09:59:33;95132.84;;;7.13;69.16
25526;BME280;13424;48.424;11.258;2024-03-08T10:02:02;95134.34;;;7.32;67.77
25526;BME280;13424;48.424;11.258;2024-03-08T10:04:31;95136.88;;;7.04;68.22
25526;BME280;13424;48.424;11.258;2024-03-08T10:07:00;95134.03;;;8.16;66.29
25526;BME280;13424;48.424;11.258;2024-03-08T10:09:27;95141.97;;;7.64;66.96
25526;BME280;13424;48.424;11.258;2024-03-08T10:11:57;95136.69;;;8.04;66.77
25526;BME280;13424;48.424;11.258;2024-03-08T10:14:25;95141.66;;;8.52;66.02
25526;BME280;13424;48.424;11.258;2024-03-08T10:16:52;95135.13;;;8.43;65.59
25526;BME280;13424;48.424;11.258;2024-03-08T10:19:19;95133.72;;;9.14;64.53
25526;BME280;13424;48.424;11.258;2024-03-08T10:21:51;95120.00;;;7.80;65.83
25526;BME280;13424;48.424;11.258;2024-03-08T10:24:19;95120.97;;;9.00;65.24
25526;BME280;13424;48.424;11.258;2024-03-08T10:26:46;95115.94;;;8.41;66.35
25526;BME280;13424;48.424;11.258;2024-03-08T10:29:13;95112.13;;;8.37;64.68
25526;BME280;13424;48.424;11.258;2024-03-08T10:31:43;95114.91;;;8.71;65.11
25526;BME280;13424;48.424;11.258;2024-03-08T10:34:10;95111.13;;;8.38;64.49
25526;BME280;13424;48.424;11.258;2024-03-08T10:36:36;95106.34;;;8.68;64.47
25526;BME280;13424;48.424;11.258;2024-03-08T10:39:23;95110.91;;;9.02;63.76
25526;BME280;13424;48.424;11.258;2024-03-08T10:42:12;95113.41;;;9.25;64.00
25526;BME280;13424;48.424;11.258;2024-03-08T10:45:05;95111.22;;;9.05;63.42
25526;BME280;13424;48.424;11.258;2024-03-08T10:47:37;95114.56;;;8.67;64.17
25526;BME280;13424;48.424;11.258;2024-03-08T10:50:18;95106.03;;;8.82;65.14
25526;BME280;13424;48.424;11.258;2024-03-08T10:52:51;95105.91;;;9.05;63.42
25526;BME280;13424;48.424;11.258;2024-03-08T10:55:19;95103.38;;;8.82;63.27
25526;BME280;13424;48.424;11.258;2024-03-08T10:57:46;95096.38;;;9.43;63.90
25526;BME280;13424;48.424;11.258;2024-03-08T11:00:14;95106.13;;;9.37;62.97
25526;BME280;13424;48.424;11.258;2024-03-08T11:02:46;95095.47;;;9.54;62.06
25526;BME280;13424;48.424;11.258;2024-03-08T11:05:41;95095.19;;;9.34;63.61
25526;BME280;13424;48.424;11.258;2024-03-08T11:08:19;95100.72;;;9.49;63.25
25526;BME280;13424;48.424;11.258;2024-03-08T11:10:48;95092.50;;;10.11;62.37
25526;BME280;13424;48.424;11.258;2024-03-08T11:13:42;95076.19;;;9.64;62.31
25526;BME280;13424;48.424;11.258;2024-03-08T11:19:24;95078.69;;;9.54;62.29
25526;BME280;13424;48.424;11.258;2024-03-08T11:22:04;95064.94;;;9.06;61.17
25526;BME280;13424;48.424;11.258;2024-03-08T11:24:39;95067.56;;;9.78;60.94
25526;BME280;13424;48.424;11.258;2024-03-08T11:27:09;95063.06;;;10.23;61.37
25526;BME280;13424;48.424;11.258;2024-03-08T11:29:36;95062.13;;;10.12;60.88
25526;BME280;13424;48.424;11.258;2024-03-08T11:32:17;95048.75;;;10.07;60.45
25526;BME280;13424;48.424;11.258;2024-03-08T11:34:49;95050.88;;;10.10;61.58
25526;BME280;13424;48.424;11.258;2024-03-08T11:37:18;95041.75;;;10.50;59.65
25526;BME280;13424;48.424;11.258;2024-03-08T11:39:54;95032.66;;;10.46;58.72
25526;BME280;13424;48.424;11.258;2024-03-08T11:42:28;95058.25;;;10.03;58.52
25526;BME280;13424;48.424;11.258;2024-03-08T11:44:54;95048.38;;;9.76;59.45
25526;BME280;13424;48.424;11.258;2024-03-08T11:47:21;95034.56;;;9.79;59.80
25526;BME280;13424;48.424;11.258;2024-03-08T11:49:48;95035.41;;;10.29;60.09
25526;BME280;13424;48.424;11.258;2024-03-08T11:52:18;95033.47;;;10.78;58.33
25526;BME280;13424;48.424;11.258;2024-03-08T11:54:55;95034.53;;;10.77;58.32
25526;BME280;13424;48.424;11.258;2024-03-08T11:57:24;95039.53;;;10.69;59.42
25526;BME280;13424;48.424;11.258;2024-03-08T11:59:57;95033.28;;;10.58;59.04
25526;BME280;13424;48.424;11.258;2024-03-08T12:02:25;95037.22;;;10.23;58.06
25526;BME280;13424;48.424;11.258;2024-03-08T12:04:59;95015.88;;;10.50;58.32
25526;BME280;13424;48.424;11.258;2024-03-08T12:07:26;95018.88;;;10.05;57.33
25526;BME280;13424;48.424;11.258;2024-03-08T12:10:19;95013.94;;;10.41;57.73
25526;BME280;13424;48.424;11.258;2024-03-08T12:12:50;95010.81;;;10.49;57.41
25526;BME280;13424;48.424;11.258;2024-03-08T12:15:23;95012.53;;;10.60;58.12
25526;BME280;13424;48.424;11.258;2024-03-08T12:17:54;95010.88;;;10.27;58.20
25526;BME280;13424;48.424;11.258;2024-03-08T12:20:30;95005.28;;;10.87;57.64
25526;BME280;13424;48.424;11.258;2024-03-08T12:22:57;95013.06;;;10.62;57.74
25526;BME280;13424;48.424;11.258;2024-03-08T12:25:32;95000.75;;;11.78;55.17
25526;BME280;13424;48.424;11.258;2024-03-08T12:28:12;95001.31;;;11.37;55.19
25526;BME280;13424;48.424;11.258;2024-03-08T12:30:50;95003.13;;;11.27;54.86
25526;BME280;13424;48.424;11.258;2024-03-08T12:33:18;94991.38;;;11.23;56.01
25526;BME280;13424;48.424;11.258;2024-03-08T12:35:53;94988.72;;;11.28;55.86
25526;BME280;13424;48.424;11.258;2024-03-08T12:38:22;94991.16;;;11.34;55.87
25526;BME280;13424;48.424;11.258;2024-03-08T12:40:51;94994.41;;;11.41;56.33
25526;BME280;13424;48.424;11.258;2024-03-08T12:43:20;94974.13;;;10.61;55.70
25526;BME280;13424;48.424;11.258;2024-03-08T12:45:46;94972.88;;;10.42;56.00
25526;BME280;13424;48.424;11.258;2024-03-08T12:48:15;94971.47;;;10.34;55.77
25526;BME280;13424;48.424;11.258;2024-03-08T12:50:42;94967.22;;;10.65;56.00
25526;BME280;13424;48.424;11.258;2024-03-08T12:53:14;94963.41;;;11.35;56.10
25526;BME280;13424;48.424;11.258;2024-03-08T12:55:40;94961.75;;;11.29;57.08
25526;BME280;13424;48.424;11.258;2024-03-08T12:58:06;94965.72;;;10.79;56.20
25526;BME280;13424;48.424;11.258;2024-03-08T13:00:39;94960.06;;;11.13;56.52
25526;BME280;13424;48.424;11.258;2024-03-08T13:03:09;94955.59;;;10.76;56.15
25526;BME280;13424;48.424;11.258;2024-03-08T13:05:38;94953.22;;;11.27;56.49
25526;BME280;13424;48.424;11.258;2024-03-08T13:08:07;94946.69;;;11.03;55.62
25526;BME280;13424;48.424;11.258;2024-03-08T13:10:42;94943.44;;;10.96;55.72